Terminal Aerodrome Forecast
Issued by NWS

Home | Current Version | Previous Version | Text Only | Print | Product List | Glossary On
Versions: 1 2 3 4 5 6 7 8 9 10 11 12 13 14 15 16 17 18 19 20 21 22 23 24 25 26 27 28 29 30 31
000
FTUS45 KGJT 042326
TAFTEX
TAF
KTEX 042326Z 0500/0524 00000KT P6SM VCTS SCT050 BKN060CB OVC070
      TEMPO 0500/0504 VRB15G25KT P6SM -TSRA BKN050CB OVC070
     FM050600 14004KT P6SM VCSH BKN050 OVC080
     FM051800 21006KT P6SM SCT050 BKN100=

USA.gov is the U.S. government's official web portal to all federal, state and local government web resources and services.